sensor_id;sensor_type;location;lat;lon;timestamp;pressure;altitude;pressure_sealevel;temperature;humidity
54389;BME280;40975;50.390;8.640;2023-08-30T00:00:20;98409.00;;;11.54;100.00
54389;BME280;40975;50.390;8.640;2023-08-30T00:02:46;98420.16;;;11.57;100.00
54389;BME280;40975;50.390;8.640;2023-08-30T00:05:12;98417.31;;;11.59;100.00
54389;BME280;40975;50.390;8.640;2023-08-30T00:07:38;98405.19;;;11.56;100.00
54389;BME280;40975;50.390;8.640;2023-08-30T00:10:04;98406.97;;;11.64;100.00
54389;BME280;40975;50.390;8.640;2023-08-30T00:12:29;98413.63;;;11.68;100.00
54389;BME280;40975;50.390;8.640;2023-08-30T00:14:55;98404.84;;;11.68;100.00
54389;BME280;40975;50.390;8.640;2023-08-30T00:17:22;98407.13;;;11.71;100.00
54389;BME280;40975;50.390;8.640;2023-08-30T00:19:47;98406.97;;;11.72;100.00
54389;BME280;40975;50.390;8.640;2023-08-30T00:22:13;98407.50;;;11.68;100.00
54389;BME280;40975;50.390;8.640;2023-08-30T00:24:39;98399.34;;;11.69;100.00
54389;BME280;40975;50.390;8.640;2023-08-30T00:27:04;98403.63;;;11.78;100.00
54389;BME280;40975;50.390;8.640;2023-08-30T00:29:30;98405.94;;;11.73;100.00
54389;BME280;40975;50.390;8.640;2023-08-30T00:31:55;98408.09;;;11.78;100.00
54389;BME280;40975;50.390;8.640;2023-08-30T00:34:21;98401.66;;;11.72;100.00
54389;BME280;40975;50.390;8.640;2023-08-30T00:36:47;98405.63;;;11.76;100.00
54389;BME280;40975;50.390;8.640;2023-08-30T00:39:12;98408.63;;;11.73;100.00
54389;BME280;40975;50.390;8.640;2023-08-30T00:41:38;98408.94;;;11.78;100.00
54389;BME280;40975;50.390;8.640;2023-08-30T00:44:04;98409.28;;;11.75;100.00
54389;BME280;40975;50.390;8.640;2023-08-30T00:46:30;98410.75;;;11.78;100.00
54389;BME280;40975;50.390;8.640;2023-08-30T00:48:57;98408.94;;;11.78;100.00
54389;BME280;40975;50.390;8.640;2023-08-30T00:51:23;98399.13;;;11.79;100.00
54389;BME280;40975;50.390;8.640;2023-08-30T00:53:49;98407.09;;;11.79;100.00
54389;BME280;40975;50.390;8.640;2023-08-30T00:56:15;98389.34;;;11.79;100.00
54389;BME280;40975;50.390;8.640;2023-08-30T00:58:41;98390.00;;;11.81;100.00
54389;BME280;40975;50.390;8.640;2023-08-30T01:01:07;98386.50;;;11.81;100.00
54389;BME280;40975;50.390;8.640;2023-08-30T01:03:35;98383.66;;;11.91;100.00
54389;BME280;40975;50.390;8.640;2023-08-30T01:06:00;98387.81;;;11.85;100.00
54389;BME280;40975;50.390;8.640;2023-08-30T01:08:27;98380.84;;;11.84;100.00
54389;BME280;40975;50.390;8.640;2023-08-30T01:11:07;98383.31;;;11.86;100.00
54389;BME280;40975;50.390;8.640;2023-08-30T01:13:42;98375.19;;;11.87;100.00
54389;BME280;40975;50.390;8.640;2023-08-30T01:16:11;98376.00;;;11.88;100.00
54389;BME280;40975;50.390;8.640;2023-08-30T01:18:38;98374.34;;;11.87;100.00
54389;BME280;40975;50.390;8.640;2023-08-30T01:21:04;98378.00;;;11.86;100.00
54389;BME280;40975;50.390;8.640;2023-08-30T01:23:48;98371.50;;;11.88;100.00
54389;BME280;40975;50.390;8.640;2023-08-30T01:26:42;98367.22;;;11.87;100.00
54389;BME280;40975;50.390;8.640;2023-08-30T01:29:11;98369.22;;;11.85;100.00
54389;BME280;40975;50.390;8.640;2023-08-30T01:31:38;98363.88;;;11.85;100.00
54389;BME280;40975;50.390;8.640;2023-08-30T01:34:05;98363.22;;;11.83;100.00
54389;BME280;40975;50.390;8.640;2023-08-30T01:36:31;98368.38;;;11.85;100.00
54389;BME280;40975;50.390;8.640;2023-08-30T01:38:58;98361.22;;;11.85;100.00
54389;BME280;40975;50.390;8.640;2023-08-30T01:41:25;98364.72;;;11.86;100.00
54389;BME280;40975;50.390;8.640;2023-08-30T01:43:52;98359.22;;;11.87;100.00
54389;BME280;40975;50.390;8.640;2023-08-30T01:46:18;98353.56;;;11.90;100.00
54389;BME280;40975;50.390;8.640;2023-08-30T01:48:46;98351.75;;;11.91;100.00
54389;BME280;40975;50.390;8.640;2023-08-30T01:51:14;98351.56;;;11.92;100.00
54389;BME280;40975;50.390;8.640;2023-08-30T01:53:42;98351.56;;;11.92;100.00
54389;BME280;40975;50.390;8.640;2023-08-30T01:56:08;98355.88;;;11.93;100.00
54389;BME280;40975;50.390;8.640;2023-08-30T01:58:34;98359.88;;;11.89;100.00
54389;BME280;40975;50.390;8.640;2023-08-30T02:01:00;98357.69;;;11.93;100.00
54389;BME280;40975;50.390;8.640;2023-08-30T02:03:25;98357.06;;;11.91;100.00
54389;BME280;40975;50.390;8.640;2023-08-30T02:06:08;98353.22;;;11.93;100.00
54389;BME280;40975;50.390;8.640;2023-08-30T02:08:55;98357.34;;;11.96;100.00
54389;BME280;40975;50.390;8.640;2023-08-30T02:11:26;98358.53;;;11.93;100.00
54389;BME280;40975;50.390;8.640;2023-08-30T02:13:57;98351.56;;;11.92;100.00
54389;BME280;40975;50.390;8.640;2023-08-30T02:16:23;98348.06;;;11.92;100.00
54389;BME280;40975;50.390;8.640;2023-08-30T02:18:50;98351.56;;;11.92;100.00
54389;BME280;40975;50.390;8.640;2023-08-30T02:21:15;98353.88;;;11.95;100.00
54389;BME280;40975;50.390;8.640;2023-08-30T02:23:41;98347.72;;;11.95;100.00
54389;BME280;40975;50.390;8.640;2023-08-30T02:26:06;98344.06;;;11.96;100.00
54389;BME280;40975;50.390;8.640;2023-08-30T02:28:32;98351.72;;;11.99;100.00
54389;BME280;40975;50.390;8.640;2023-08-30T02:30:57;98357.03;;;11.99;100.00
54389;BME280;40975;50.390;8.640;2023-08-30T02:33:23;98358.69;;;12.00;100.00
54389;BME280;40975;50.390;8.640;2023-08-30T02:35:48;98362.16;;;12.01;100.00
54389;BME280;40975;50.390;8.640;2023-08-30T02:38:13;98363.00;;;12.01;100.00
54389;BME280;40975;50.390;8.640;2023-08-30T02:40:40;98366.50;;;12.02;100.00
54389;BME280;40975;50.390;8.640;2023-08-30T02:43:06;98351.72;;;11.99;100.00
54389;BME280;40975;50.390;8.640;2023-08-30T02:45:32;98359.00;;;11.97;100.00
54389;BME280;40975;50.390;8.640;2023-08-30T02:47:57;98357.34;;;11.96;100.00
54389;BME280;40975;50.390;8.640;2023-08-30T02:50:23;98355.69;;;11.95;100.00
54389;BME280;40975;50.390;8.640;2023-08-30T02:52:49;98349.56;;;11.94;100.00
54389;BME280;40975;50.390;8.640;2023-08-30T02:55:14;98346.03;;;11.94;100.00
54389;BME280;40975;50.390;8.640;2023-08-30T02:57:39;98343.56;;;11.92;100.00
54389;BME280;40975;50.390;8.640;2023-08-30T03:00:05;98345.41;;;11.92;100.00
54389;BME280;40975;50.390;8.640;2023-08-30T03:02:32;98341.25;;;11.89;100.00
54389;BME280;40975;50.390;8.640;2023-08-30T03:04:59;98345.94;;;11.87;100.00
54389;BME280;40975;50.390;8.640;2023-08-30T03:07:25;98337.13;;;11.87;100.00
54389;BME280;40975;50.390;8.640;2023-08-30T03:09:52;98336.13;;;11.88;100.00
54389;BME280;40975;50.390;8.640;2023-08-30T03:12:18;98340.63;;;11.87;100.00
54389;BME280;40975;50.390;8.640;2023-08-30T03:14:45;98325.34;;;11.81;100.00
54389;BME280;40975;50.390;8.640;2023-08-30T03:17:11;98339.13;;;11.85;100.00
54389;BME280;40975;50.390;8.640;2023-08-30T03:19:37;98336.97;;;11.80;100.00
54389;BME280;40975;50.390;8.640;2023-08-30T03:22:02;98334.16;;;11.81;100.00
54389;BME280;40975;50.390;8.640;2023-08-30T03:24:28;98337.66;;;11.82;100.00
54389;BME280;40975;50.390;8.640;2023-08-30T03:26:53;98338.81;;;11.79;100.00
54389;BME280;40975;50.390;8.640;2023-08-30T03:29:18;98330.19;;;11.77;100.00
54389;BME280;40975;50.390;8.640;2023-08-30T03:31:44;98327.06;;;11.74;100.00
54389;BME280;40975;50.390;8.640;2023-08-30T03:34:10;98337.97;;;11.79;100.00
54389;BME280;40975;50.390;8.640;2023-08-30T03:36:37;98336.97;;;11.80;100.00
54389;BME280;40975;50.390;8.640;2023-08-30T03:39:03;98333.31;;;11.81;100.00
54389;BME280;40975;50.390;8.640;2023-08-30T03:41:28;98340.50;;;11.80;100.00
54389;BME280;40975;50.390;8.640;2023-08-30T03:43:54;98337.97;;;11.79;100.00
54389;BME280;40975;50.390;8.640;2023-08-30T03:46:20;98341.31;;;11.81;100.00
54389;BME280;40975;50.390;8.640;2023-08-30T03:48:45;98338.31;;;11.84;100.00
54389;BME280;40975;50.390;8.640;2023-08-30T03:51:10;98340.78;;;11.86;100.00
54389;BME280;40975;50.390;8.640;2023-08-30T03:53:36;98338.31;;;11.84;100.00
54389;BME280;40975;50.390;8.640;2023-08-30T03:56:02;98335.66;;;11.84;100.00
54389;BME280;40975;50.390;8.640;2023-08-30T03:58:29;98344.44;;;11.85;100.00
54389;BME280;40975;50.390;8.640;2023-08-30T04:00:54;98329.47;;;11.83;100.00
54389;BME280;40975;50.390;8.640;2023-08-30T04:03:19;98333.81;;;11.85;100.00
54389;BME280;40975;50.390;8.640;2023-08-30T04:05:45;98335.16;;;11.80;100.00
54389;BME280;40975;50.390;8.640;2023-08-30T04:08:10;98329.00;;;11.80;100.00
54389;BME280;40975;50.390;8.640;2023-08-30T04:10:40;98333.16;;;11.82;100.00
54389;BME280;40975;50.390;8.640;2023-08-30T04:13:06;98333.50;;;11.79;100.00
54389;BME280;40975;50.390;8.640;2023-08-30T04:15:33;98336.97;;;11.80;100.00
54389;BME280;40975;50.390;8.640;2023-08-30T04:18:00;98335.03;;;11.74;100.00
54389;BME280;40975;50.390;8.640;2023-08-30T04:20:26;98333.38;;;11.73;100.00
54389;BME280;40975;50.390;8.640;2023-08-30T04:22:51;98329.91;;;11.72;100.00
54389;BME280;40975;50.390;8.640;2023-08-30T04:25:18;98334.38;;;11.72;100.00
54389;BME280;40975;50.390;8.640;2023-08-30T04:31:24;98325.41;;;11.73;100.00
54389;BME280;40975;50.390;8.640;2023-08-30T04:33:50;98325.22;;;11.74;100.00
54389;BME280;40975;50.390;8.640;2023-08-30T04:36:19;98316.59;;;11.72;100.00
54389;BME280;40975;50.390;8.640;2023-08-30T04:38:45;98314.09;;;11.71;100.00
54389;BME280;40975;50.390;8.640;2023-08-30T04:41:10;98320.75;;;11.75;100.00
54389;BME280;40975;50.390;8.640;2023-08-30T04:43:36;98322.75;;;11.73;100.00
54389;BME280;40975;50.390;8.640;2023-08-30T04:46:01;98307.97;;;11.70;100.00
54389;BME280;40975;50.390;8.640;2023-08-30T04:48:28;98312.44;;;11.70;100.00
54389;BME280;40975;50.390;8.640;2023-08-30T04:51:03;98315.09;;;11.70;100.00
54389;BME280;40975;50.390;8.640;2023-08-30T04:53:29;98320.09;;;11.73;100.00
54389;BME280;40975;50.390;8.640;2023-08-30T04:55:54;98322.56;;;11.74;100.00
54389;BME280;40975;50.390;8.640;2023-08-30T04:58:20;98320.56;;;11.76;100.00
54389;BME280;40975;50.390;8.640;2023-08-30T05:00:45;98319.75;;;11.76;100.00
54389;BME280;40975;50.390;8.640;2023-08-30T05:03:11;98315.56;;;11.73;100.00
54389;BME280;40975;50.390;8.640;2023-08-30T05:05:36;98306.78;;;11.73;100.00
54389;BME280;40975;50.390;8.640;2023-08-30T05:08:02;98309.78;;;11.70;100.00
54389;BME280;40975;50.390;8.640;2023-08-30T05:10:30;98310.44;;;11.72;100.00
54389;BME280;40975;50.390;8.640;2023-08-30T05:12:55;98306.59;;;11.74;100.00
54389;BME280;40975;50.390;8.640;2023-08-30T05:15:20;98297.47;;;11.77;100.00
54389;BME280;40975;50.390;8.640;2023-08-30T05:17:46;98310.59;;;11.78;100.00
54389;BME280;40975;50.390;8.640;2023-08-30T05:20:12;98303.78;;;11.76;100.00
54389;BME280;40975;50.390;8.640;2023-08-30T05:22:38;98310.88;;;11.83;100.00
54389;BME280;40975;50.390;8.640;2023-08-30T05:25:03;98314.84;;;11.88;100.00
54389;BME280;40975;50.390;8.640;2023-08-30T05:27:29;98313.66;;;11.90;100.00
54389;BME280;40975;50.390;8.640;2023-08-30T05:29:55;98316.50;;;11.89;100.00
54389;BME280;40975;50.390;8.640;2023-08-30T05:32:22;98309.66;;;11.94;100.00
54389;BME280;40975;50.390;8.640;2023-08-30T05:35:14;98318.81;;;12.00;100.00
54389;BME280;40975;50.390;8.640;2023-08-30T05:37:59;98314.78;;;12.04;100.00
54389;BME280;40975;50.390;8.640;2023-08-30T05:40:47;98316.91;;;12.09;100.00
54389;BME280;40975;50.390;8.640;2023-08-30T05:43:12;98323.88;;;12.10;100.00
54389;BME280;40975;50.390;8.640;2023-08-30T05:45:38;98312.25;;;12.11;100.00
54389;BME280;40975;50.390;8.640;2023-08-30T05:48:04;98323.00;;;12.18;100.00
54389;BME280;40975;50.390;8.640;2023-08-30T05:50:30;98323.50;;;12.21;100.00
54389;BME280;40975;50.390;8.640;2023-08-30T05:52:56;98318.16;;;12.21;100.00
54389;BME280;40975;50.390;8.640;2023-08-30T05:55:21;98325.28;;;12.29;100.00
54389;BME280;40975;50.390;8.640;2023-08-30T05:57:46;98326.75;;;12.32;100.00
54389;BME280;40975;50.390;8.640;2023-08-30T06:00:12;98321.59;;;12.30;100.00
54389;BME280;40975;50.390;8.640;2023-08-30T06:02:41;98333.84;;;12.39;100.00
54389;BME280;40975;50.390;8.640;2023-08-30T06:05:06;98318.69;;;12.40;100.00
54389;BME280;40975;50.390;8.640;2023-08-30T06:07:32;98325.59;;;12.49;100.00
54389;BME280;40975;50.390;8.640;2023-08-30T06:09:57;98327.91;;;12.52;100.00
54389;BME280;40975;50.390;8.640;2023-08-30T06:12:22;98327.72;;;12.54;100.00
54389;BME280;40975;50.390;8.640;2023-08-30T06:14:48;98325.19;;;12.60;100.00
54389;BME280;40975;50.390;8.640;2023-08-30T06:17:17;98314.06;;;12.57;100.00
54389;BME280;40975;50.390;8.640;2023-08-30T06:19:44;98316.84;;;12.64;100.00
54389;BME280;40975;50.390;8.640;2023-08-30T06:22:09;98313.94;;;12.73;100.00
54389;BME280;40975;50.390;8.640;2023-08-30T06:24:34;98313.38;;;12.78;100.00
54389;BME280;40975;50.390;8.640;2023-08-30T06:27:00;98307.34;;;12.84;100.00
54389;BME280;40975;50.390;8.640;2023-08-30T06:29:25;98314.44;;;12.92;100.00
54389;BME280;40975;50.390;8.640;2023-08-30T06:31:50;98314.06;;;12.95;100.00
54389;BME280;40975;50.390;8.640;2023-08-30T06:34:16;98319.84;;;12.99;100.00
54389;BME280;40975;50.390;8.640;2023-08-30T06:36:42;98315.47;;;13.06;100.00
54389;BME280;40975;50.390;8.640;2023-08-30T06:39:07;98316.94;;;13.09;100.00
54389;BME280;40975;50.390;8.640;2023-08-30T06:41:32;98313.63;;;13.21;100.00
54389;BME280;40975;50.390;8.640;2023-08-30T06:43:58;98310.06;;;13.29;100.00
54389;BME280;40975;50.390;8.640;2023-08-30T06:46:23;98317.50;;;13.34;100.00
54389;BME280;40975;50.390;8.640;2023-08-30T06:48:49;98318.25;;;13.43;100.00
54389;BME280;40975;50.390;8.640;2023-08-30T06:51:14;98318.53;;;13.48;100.00
54389;BME280;40975;50.390;8.640;2023-08-30T06:53:39;98316.41;;;13.58;100.00
54389;BME280;40975;50.390;8.640;2023-08-30T06:56:05;98320.88;;;13.73;100.00
54389;BME280;40975;50.390;8.640;2023-08-30T06:58:30;98314.59;;;13.95;100.00
54389;BME280;40975;50.390;8.640;2023-08-30T07:00:57;98313.47;;;14.26;100.00
54389;BME280;40975;50.390;8.640;2023-08-30T07:03:23;98309.34;;;14.45;100.00
54389;BME280;40975;50.390;8.640;2023-08-30T07:05:50;98312.47;;;14.71;100.00
54389;BME280;40975;50.390;8.640;2023-08-30T07:08:16;98310.69;;;14.78;100.00
54389;BME280;40975;50.390;8.640;2023-08-30T07:10:41;98310.63;;;15.00;100.00
54389;BME280;40975;50.390;8.640;2023-08-30T07:13:07;98303.28;;;15.08;100.00
54389;BME280;40975;50.390;8.640;2023-08-30T07:15:36;98304.19;;;15.22;100.00
54389;BME280;40975;50.390;8.640;2023-08-30T07:18:01;98308.66;;;15.50;100.00
54389;BME280;40975;50.390;8.640;2023-08-30T07:20:27;98297.16;;;15.57;100.00
54389;BME280;40975;50.390;8.640;2023-08-30T07:22:52;98313.97;;;15.85;100.00
54389;BME280;40975;50.390;8.640;2023-08-30T07:25:17;98300.19;;;15.89;100.00
54389;BME280;40975;50.390;8.640;2023-08-30T07:27:43;98308.31;;;16.22;100.00
54389;BME280;40975;50.390;8.640;2023-08-30T07:30:08;98302.50;;;16.05;100.00
54389;BME280;40975;50.390;8.640;2023-08-30T07:32:34;98302.72;;;16.17;100.00
54389;BME280;40975;50.390;8.640;2023-08-30T07:35:01;98305.25;;;16.25;100.00
54389;BME280;40975;50.390;8.640;2023-08-30T07:37:26;98311.63;;;16.51;100.00
54389;BME280;40975;50.390;8.640;2023-08-30T07:39:52;98311.66;;;16.71;100.00
54389;BME280;40975;50.390;8.640;2023-08-30T07:42:18;98302.78;;;16.57;100.00
54389;BME280;40975;50.390;8.640;2023-08-30T07:44:43;98311.03;;;16.83;100.00
54389;BME280;40975;50.390;8.640;2023-08-30T07:47:08;98302.78;;;16.98;100.00
54389;BME280;40975;50.390;8.640;2023-08-30T07:49:34;98312.25;;;16.87;100.00
54389;BME280;40975;50.390;8.640;2023-08-30T07:51:59;98301.16;;;16.83;100.00
54389;BME280;40975;50.390;8.640;2023-08-30T07:54:24;98299.06;;;16.92;100.00
54389;BME280;40975;50.390;8.640;2023-08-30T07:56:50;98299.72;;;16.81;100.00
54389;BME280;40975;50.390;8.640;2023-08-30T07:59:15;98304.63;;;16.90;100.00
54389;BME280;40975;50.390;8.640;2023-08-30T08:01:40;98304.59;;;17.24;100.00
54389;BME280;40975;50.390;8.640;2023-08-30T08:04:06;98303.72;;;17.50;98.87
54389;BME280;40975;50.390;8.640;2023-08-30T08:06:31;98303.94;;;17.49;99.20
54389;BME280;40975;50.390;8.640;2023-08-30T08:08:56;98310.50;;;17.60;100.00
54389;BME280;40975;50.390;8.640;2023-08-30T08:11:22;98311.47;;;17.79;99.19
54389;BME280;40975;50.390;8.640;2023-08-30T08:13:47;98306.41;;;18.02;95.54
54389;BME280;40975;50.390;8.640;2023-08-30T08:16:12;98306.91;;;18.25;97.77
54389;BME280;40975;50.390;8.640;2023-08-30T08:18:38;98300.31;;;18.53;95.25
54389;BME280;40975;50.390;8.640;2023-08-30T08:21:03;98311.13;;;18.71;94.66
54389;BME280;40975;50.390;8.640;2023-08-30T08:23:29;98314.06;;;18.95;93.62
54389;BME280;40975;50.390;8.640;2023-08-30T08:26:00;98305.44;;;19.49;89.48
54389;BME280;40975;50.390;8.640;2023-08-30T08:28:26;98307.44;;;19.16;89.81
54389;BME280;40975;50.390;8.640;2023-08-30T08:30:51;98308.09;;;19.11;88.27
54389;BME280;40975;50.390;8.640;2023-08-30T08:33:17;98312.41;;;18.94;91.00
54389;BME280;40975;50.390;8.640;2023-08-30T08:35:43;98309.09;;;18.67;94.32
54389;BME280;40975;50.390;8.640;2023-08-30T08:38:09;98317.44;;;18.58;98.02
54389;BME280;40975;50.390;8.640;2023-08-30T08:40:38;98303.44;;;18.75;97.57
54389;BME280;40975;50.390;8.640;2023-08-30T08:43:05;98299.50;;;19.03;91.28
54389;BME280;40975;50.390;8.640;2023-08-30T08:45:32;98301.19;;;19.41;89.73
54389;BME280;40975;50.390;8.640;2023-08-30T08:48:00;98292.16;;;19.35;90.21
54389;BME280;40975;50.390;8.640;2023-08-30T08:50:27;98299.53;;;19.40;93.17
54389;BME280;40975;50.390;8.640;2023-08-30T08:52:53;98299.06;;;19.80;89.15
54389;BME280;40975;50.390;8.640;2023-08-30T08:55:19;98299.88;;;19.99;88.32
54389;BME280;40975;50.390;8.640;2023-08-30T08:57:45;98300.16;;;20.52;85.68
54389;BME280;40975;50.390;8.640;2023-08-30T09:00:12;98301.28;;;21.10;82.35
54389;BME280;40975;50.390;8.640;2023-08-30T09:02:38;98296.53;;;21.65;79.00
54389;BME280;40975;50.390;8.640;2023-08-30T09:05:04;98297.56;;;22.05;78.31
54389;BME280;40975;50.390;8.640;2023-08-30T09:07:30;98297.94;;;22.55;72.92
54389;BME280;40975;50.390;8.640;2023-08-30T09:09:56;98297.34;;;23.87;69.93
54389;BME280;40975;50.390;8.640;2023-08-30T09:12:21;98298.47;;;23.25;69.25
54389;BME280;40975;50.390;8.640;2023-08-30T09:14:55;98296.03;;;23.46;69.53
54389;BME280;40975;50.390;8.640;2023-08-30T09:17:20;98282.31;;;24.57;61.48
54389;BME280;40975;50.390;8.640;2023-08-30T09:19:46;98277.19;;;24.28;61.21
54389;BME280;40975;50.390;8.640;2023-08-30T09:22:11;98273.50;;;25.09;60.12
54389;BME280;40975;50.390;8.640;2023-08-30T09:24:38;98280.63;;;25.84;57.17
54389;BME280;40975;50.390;8.640;2023-08-30T09:27:04;98274.75;;;25.39;55.83
54389;BME280;40975;50.390;8.640;2023-08-30T09:29:30;98262.16;;;25.91;55.78
54389;BME280;40975;50.390;8.640;2023-08-30T09:31:55;98269.56;;;26.22;55.69
54389;BME280;40975;50.390;8.640;2023-08-30T09:34:25;98264.16;;;26.48;54.37
54389;BME280;40975;50.390;8.640;2023-08-30T09:36:51;98263.81;;;27.22;54.64
54389;BME280;40975;50.390;8.640;2023-08-30T09:39:16;98259.69;;;27.40;52.05
54389;BME280;40975;50.390;8.640;2023-08-30T09:41:45;98245.56;;;27.22;48.92
54389;BME280;40975;50.390;8.640;2023-08-30T09:44:11;98236.78;;;25.50;50.46
54389;BME280;40975;50.390;8.640;2023-08-30T09:46:47;98254.22;;;27.45;48.64
54389;BME280;40975;50.390;8.640;2023-08-30T09:49:14;98239.38;;;26.70;49.35
54389;BME280;40975;50.390;8.640;2023-08-30T09:51:41;98239.53;;;27.36;48.45
54389;BME280;40975;50.390;8.640;2023-08-30T09:54:14;98232.03;;;26.76;48.55
54389;BME280;40975;50.390;8.640;2023-08-30T09:56:40;98222.16;;;25.03;52.57
54389;BME280;40975;50.390;8.640;2023-08-30T09:59:06;98236.97;;;26.32;52.06
54389;BME280;40975;50.390;8.640;2023-08-30T10:01:32;98226.63;;;26.65;50.46
54389;BME280;40975;50.390;8.640;2023-08-30T10:03:58;98213.47;;;25.64;50.74
54389;BME280;40975;50.390;8.640;2023-08-30T10:06:24;98208.47;;;23.18;54.41
54389;BME280;40975;50.390;8.640;2023-08-30T10:08:51;98218.25;;;23.63;55.56
54389;BME280;40975;50.390;8.640;2023-08-30T10:11:17;98211.75;;;22.97;57.07
54389;BME280;40975;50.390;8.640;2023-08-30T10:13:44;98212.41;;;22.02;58.40
54389;BME280;40975;50.390;8.640;2023-08-30T10:16:12;98211.94;;;20.95;63.21
54389;BME280;40975;50.390;8.640;2023-08-30T10:18:41;98218.38;;;21.06;66.62
54389;BME280;40975;50.390;8.640;2023-08-30T10:21:09;98193.50;;;20.92;62.40
54389;BME280;40975;50.390;8.640;2023-08-30T10:23:38;98195.38;;;21.03;62.99
54389;BME280;40975;50.390;8.640;2023-08-30T10:26:05;98203.03;;;20.94;64.38
54389;BME280;40975;50.390;8.640;2023-08-30T10:28:32;98187.50;;;21.13;59.78
54389;BME280;40975;50.390;8.640;2023-08-30T10:30:58;98187.28;;;21.03;61.59
54389;BME280;40975;50.390;8.640;2023-08-30T10:33:24;98202.94;;;22.34;61.80
54389;BME280;40975;50.390;8.640;2023-08-30T10:35:51;98191.19;;;23.63;55.05
54389;BME280;40975;50.390;8.640;2023-08-30T10:38:27;98187.94;;;23.66;53.28
54389;BME280;40975;50.390;8.640;2023-08-30T10:40:53;98187.91;;;23.88;56.28
54389;BME280;40975;50.390;8.640;2023-08-30T10:43:28;98179.91;;;23.05;55.38
54389;BME280;40975;50.390;8.640;2023-08-30T10:46:02;98184.13;;;21.59;59.76
54389;BME280;40975;50.390;8.640;2023-08-30T10:48:38;98186.31;;;21.21;60.91
54389;BME280;40975;50.390;8.640;2023-08-30T10:51:06;98184.72;;;20.73;61.07
54389;BME280;40975;50.390;8.640;2023-08-30T10:53:32;98182.88;;;21.96;58.54
54389;BME280;40975;50.390;8.640;2023-08-30T10:56:28;98182.56;;;21.51;58.89
54389;BME280;40975;50.390;8.640;2023-08-30T10:58:53;98176.81;;;21.59;59.05
54389;BME280;40975;50.390;8.640;2023-08-30T11:01:18;98176.66;;;22.46;54.77
54389;BME280;40975;50.390;8.640;2023-08-30T11:03:44;98171.41;;;22.96;55.25
54389;BME280;40975;50.390;8.640;2023-08-30T11:06:13;98174.13;;;23.40;55.75
54389;BME280;40975;50.390;8.640;2023-08-30T11:08:39;98164.38;;;23.17;54.66
54389;BME280;40975;50.390;8.640;2023-08-30T11:11:05;98163.84;;;22.98;54.47
54389;BME280;40975;50.390;8.640;2023-08-30T11:13:33;98165.16;;;23.62;54.39
54389;BME280;40975;50.390;8.640;2023-08-30T11:16:02;98151.19;;;24.03;52.04
54389;BME280;40975;50.390;8.640;2023-08-30T11:18:30;98161.50;;;24.38;51.53
54389;BME280;40975;50.390;8.640;2023-08-30T11:21:02;98143.78;;;24.26;49.30
54389;BME280;40975;50.390;8.640;2023-08-30T11:23:27;98140.50;;;23.36;49.90
54389;BME280;40975;50.390;8.640;2023-08-30T11:25:53;98147.91;;;23.19;53.29
54389;BME280;40975;50.390;8.640;2023-08-30T11:28:22;98152.41;;;22.69;54.03
54389;BME280;40975;50.390;8.640;2023-08-30T11:30:47;98133.66;;;22.45;50.84
54389;BME280;40975;50.390;8.640;2023-08-30T11:33:16;98146.44;;;22.89;52.08
54389;BME280;40975;50.390;8.640;2023-08-30T11:35:42;98145.28;;;23.51;51.43
54389;BME280;40975;50.390;8.640;2023-08-30T11:38:08;98132.88;;;23.55;49.38
54389;BME280;40975;50.390;8.640;2023-08-30T11:40:34;98138.31;;;23.11;52.07
54389;BME280;40975;50.390;8.640;2023-08-30T11:43:01;98143.88;;;23.21;53.72
54389;BME280;40975;50.390;8.640;2023-08-30T11:45:28;98131.88;;;22.73;52.76
54389;BME280;40975;50.390;8.640;2023-08-30T11:47:53;98129.31;;;22.27;53.55
54389;BME280;40975;50.390;8.640;2023-08-30T11:50:19;98125.31;;;21.95;54.78
54389;BME280;40975;50.390;8.640;2023-08-30T11:52:45;98132.06;;;22.10;55.51
54389;BME280;40975;50.390;8.640;2023-08-30T11:55:11;98127.88;;;22.02;54.45
54389;BME280;40975;50.390;8.640;2023-08-30T11:57:38;98131.94;;;21.70;55.85
54389;BME280;40975;50.390;8.640;2023-08-30T12:00:10;98125.28;;;21.61;54.98
54389;BME280;40975;50.390;8.640;2023-08-30T12:02:38;98126.38;;;21.60;55.48
54389;BME280;40975;50.390;8.640;2023-08-30T12:05:03;98134.91;;;21.57;55.96
54389;BME280;40975;50.390;8.640;2023-08-30T12:07:29;98133.88;;;21.17;58.75
54389;BME280;40975;50.390;8.640;2023-08-30T12:10:17;98137.25;;;20.84;58.61
54389;BME280;40975;50.390;8.640;2023-08-30T12:12:45;98135.97;;;20.62;58.20
54389;BME280;40975;50.390;8.640;2023-08-30T12:15:11;98127.81;;;20.33;58.40
54389;BME280;40975;50.390;8.640;2023-08-30T12:17:36;98138.44;;;20.28;60.45
54389;BME280;40975;50.390;8.640;2023-08-30T12:20:02;98133.66;;;19.76;59.91
54389;BME280;40975;50.390;8.640;2023-08-30T12:22:41;98140.84;;;19.52;63.33
54389;BME280;40975;50.390;8.640;2023-08-30T12:25:20;98144.75;;;19.37;65.99
54389;BME280;40975;50.390;8.640;2023-08-30T12:27:46;98145.34;;;19.09;69.15
54389;BME280;40975;50.390;8.640;2023-08-30T12:30:16;98153.84;;;18.87;72.83
54389;BME280;40975;50.390;8.640;2023-08-30T12:32:42;98146.09;;;18.79;73.41
54389;BME280;40975;50.390;8.640;2023-08-30T12:35:08;98146.69;;;18.81;78.37
54389;BME280;40975;50.390;8.640;2023-08-30T12:37:34;98147.50;;;18.82;75.55
54389;BME280;40975;50.390;8.640;2023-08-30T12:39:59;98146.91;;;18.98;75.10
54389;BME280;40975;50.390;8.640;2023-08-30T12:42:25;98144.06;;;19.11;76.33
54389;BME280;40975;50.390;8.640;2023-08-30T12:44:51;98137.56;;;19.19;76.54
54389;BME280;40975;50.390;8.640;2023-08-30T12:47:16;98137.19;;;19.46;77.29
54389;BME280;40975;50.390;8.640;2023-08-30T12:49:42;98138.66;;;19.61;75.90
54389;BME280;40975;50.390;8.640;2023-08-30T12:52:07;98133.75;;;20.12;75.22
54389;BME280;40975;50.390;8.640;2023-08-30T12:54:32;98129.16;;;20.84;70.99